createdAt,value
2022-09-12T00:03:08.001Z,1008.832
2022-09-12T00:23:07.665Z,1008.744
2022-09-12T00:43:07.384Z,1008.703
2022-09-12T01:23:07.538Z,1008.517
2022-09-12T01:43:07.390Z,1008.397
2022-09-12T02:03:08.266Z,1008.204
2022-09-12T02:23:07.304Z,1008.015
2022-09-12T02:43:08.166Z,1008.011
2022-09-12T03:03:08.950Z,1007.979
2022-09-12T03:23:07.915Z,1007.894
2022-09-12T03:43:07.862Z,1007.827
2022-09-12T04:03:08.792Z,1007.734
2022-09-12T04:23:07.598Z,1007.861
2022-09-12T04:43:15.102Z,1007.813
2022-09-12T05:03:08.827Z,1007.713
2022-09-12T05:23:07.549Z,1007.766
2022-09-12T05:43:07.356Z,1007.735
2022-09-12T06:03:07.993Z,1007.68
2022-09-12T06:23:07.765Z,1007.57
2022-09-12T06:43:07.883Z,1007.565
2022-09-12T07:03:08.707Z,1007.431
2022-09-12T07:23:07.460Z,1007.438
2022-09-12T07:43:07.682Z,1007.558
2022-09-12T08:03:08.425Z,1007.564
2022-09-12T08:23:07.312Z,1007.624
2022-09-12T08:43:07.173Z,1007.544
2022-09-12T09:03:09.111Z,1007.519
2022-09-12T09:23:08.072Z,1007.405
2022-09-12T09:43:07.937Z,1007.254
2022-09-12T10:03:14.697Z,1007.259
2022-09-12T10:23:07.490Z,1007.105
2022-09-12T10:43:07.553Z,1006.943
2022-09-12T11:03:08.509Z,1006.726
2022-09-12T11:23:07.294Z,1006.647
2022-09-12T11:43:07.259Z,1006.453
2022-09-12T12:03:09.605Z,1006.309
2022-09-12T12:23:07.435Z,1006.099
2022-09-12T12:43:07.659Z,1005.943
2022-09-12T13:03:08.559Z,1005.891
2022-09-12T13:23:07.396Z,1005.507
2022-09-12T13:43:07.603Z,1005.243
2022-09-12T14:03:08.497Z,1005.086
2022-09-12T14:23:07.585Z,1004.865
2022-09-12T14:43:07.646Z,1004.641
2022-09-12T15:03:08.632Z,1004.476
2022-09-12T15:23:07.522Z,1004.384
2022-09-12T15:43:07.529Z,1004.136
2022-09-12T16:03:08.688Z,1004.011
2022-09-12T16:23:07.623Z,1003.841
2022-09-12T16:43:07.624Z,1003.556
2022-09-12T17:03:08.520Z,1003.475
2022-09-12T17:23:10.630Z,1003.273
2022-09-12T17:43:07.697Z,1003.133
2022-09-12T18:03:08.776Z,1003.2
2022-09-12T18:23:07.744Z,1003.073
2022-09-12T18:43:07.869Z,1003.057
2022-09-12T19:03:08.765Z,1003.05
2022-09-12T19:23:07.639Z,1002.898
2022-09-12T19:43:07.780Z,1002.798
2022-09-12T20:03:08.866Z,1002.753
2022-09-12T20:23:13.427Z,1002.521
2022-09-12T20:43:07.938Z,1002.509
2022-09-12T21:03:08.890Z,1002.433
2022-09-12T21:23:07.660Z,1002.076
2022-09-12T21:43:13.719Z,1001.721
2022-09-12T22:03:08.719Z,1001.699
2022-09-12T22:23:07.477Z,1001.77
2022-09-12T22:43:07.211Z,1001.621
2022-09-12T23:03:09.186Z,1001.445
2022-09-12T23:23:08.108Z,1001.356
2022-09-12T23:43:07.900Z,1001.441
